createdAt,value
2017-06-08T00:00:15.446Z,74.55
2017-06-08T00:01:16.034Z,74.37
2017-06-08T00:02:16.608Z,73.98
2017-06-08T00:03:17.183Z,74.37
2017-06-08T00:04:17.757Z,74.08
2017-06-08T00:05:18.331Z,73.79
2017-06-08T00:06:18.907Z,74.08
2017-06-08T00:07:19.481Z,73.98
2017-06-08T00:08:20.055Z,73.79
2017-06-08T00:09:20.630Z,73.41
2017-06-08T00:10:21.203Z,73.83
2017-06-08T00:11:21.792Z,73.73
2017-06-08T00:12:22.363Z,73.69
2017-06-08T00:13:22.938Z,73.25
2017-06-08T00:14:23.511Z,72.93
2017-06-08T00:15:24.098Z,73.22
2017-06-08T00:16:24.673Z,73.22
2017-06-08T00:17:25.246Z,72.78
2017-06-08T00:18:25.822Z,72.83
2017-06-08T00:19:26.396Z,73.44
2017-06-08T00:20:26.972Z,72.78
2017-06-08T00:21:27.547Z,72.87
2017-06-08T00:22:28.121Z,73.03
2017-06-08T00:23:28.695Z,72.93
2017-06-08T00:24:29.269Z,73.16
2017-06-08T00:25:29.843Z,73.12
2017-06-08T00:26:30.431Z,72.64
2017-06-08T00:27:31.007Z,72.83
2017-06-08T00:28:31.581Z,72.83
2017-06-08T00:29:32.155Z,73.12
2017-06-08T00:30:32.736Z,72.83
2017-06-08T00:31:33.303Z,72.83
2017-06-08T00:32:33.877Z,72.83
2017-06-08T00:33:34.452Z,72.93
2017-06-08T00:34:35.029Z,73.12
2017-06-08T00:35:35.603Z,72.83
2017-06-08T00:36:36.181Z,72.17
2017-06-08T00:37:36.754Z,72.26
2017-06-08T00:38:37.332Z,72.55
2017-06-08T00:39:37.904Z,72.74
2017-06-08T00:40:38.477Z,73.12
2017-06-08T00:41:39.050Z,73.32
2017-06-08T00:42:39.622Z,72.93
2017-06-08T00:43:40.197Z,73.32
2017-06-08T00:44:40.772Z,73.41
2017-06-08T00:45:41.346Z,73.12
2017-06-08T00:46:41.921Z,73.12
2017-06-08T00:47:42.494Z,72.83
2017-06-08T00:48:43.070Z,72.64
2017-06-08T00:49:43.646Z,73.03
2017-06-08T00:50:44.221Z,72.93
2017-06-08T00:51:44.796Z,73.12
2017-06-08T00:52:45.370Z,72.83
2017-06-08T00:53:45.946Z,73.32
2017-06-08T00:54:46.520Z,73.50
2017-06-08T00:55:47.094Z,73.69
2017-06-08T00:56:47.668Z,73.69
2017-06-08T00:57:48.241Z,73.69
2017-06-08T00:58:48.829Z,73.50
2017-06-08T00:59:49.403Z,73.22
2017-06-08T01:00:49.980Z,73.22
2017-06-08T01:01:50.553Z,73.69
2017-06-08T01:02:51.131Z,73.60
2017-06-08T01:03:51.703Z,73.32
2017-06-08T01:04:52.278Z,73.03
2017-06-08T01:05:52.851Z,73.50
2017-06-08T01:06:53.426Z,73.50
2017-06-08T01:07:54.002Z,73.60
2017-06-08T01:08:54.577Z,74.08
2017-06-08T01:09:55.167Z,74.08
2017-06-08T01:10:55.738Z,73.98
2017-06-08T01:11:56.314Z,74.08
2017-06-08T01:12:56.891Z,74.08
2017-06-08T01:13:57.466Z,73.41
2017-06-08T01:14:58.044Z,73.79
2017-06-08T01:15:58.619Z,73.98
2017-06-08T01:16:59.194Z,74.46
2017-06-08T01:17:59.770Z,73.88
2017-06-08T01:19:00.344Z,74.37
2017-06-08T01:20:00.917Z,74.17
2017-06-08T01:21:01.493Z,74.46
2017-06-08T01:22:02.081Z,74.17
2017-06-08T01:23:02.654Z,74.37
2017-06-08T01:24:03.229Z,74.93
2017-06-08T01:25:03.803Z,74.65
2017-06-08T01:26:04.377Z,74.37
2017-06-08T01:27:04.955Z,74.65
2017-06-08T01:28:05.530Z,74.37
2017-06-08T01:29:06.107Z,74.74
2017-06-08T01:30:06.680Z,74.46
2017-06-08T01:31:07.256Z,74.65
2017-06-08T01:32:07.829Z,75.32
2017-06-08T01:33:08.406Z,75.13
2017-06-08T01:34:08.979Z,75.13
2017-06-08T01:35:09.553Z,74.65
2017-06-08T01:36:10.127Z,75.22
2017-06-08T01:37:10.701Z,75.03
2017-06-08T01:38:11.277Z,74.93
2017-06-08T01:39:11.854Z,74.93
2017-06-08T01:40:12.430Z,74.84
2017-06-08T01:41:13.004Z,74.65
2017-06-08T01:42:13.579Z,74.74
2017-06-08T01:43:14.153Z,74.74
2017-06-08T01:44:14.728Z,74.74
2017-06-08T01:45:15.303Z,74.84
2017-06-08T01:46:15.878Z,73.98
2017-06-08T01:47:16.457Z,74.46
2017-06-08T01:48:17.033Z,74.55
2017-06-08T01:49:17.619Z,74.46
2017-06-08T01:50:18.206Z,74.27
2017-06-08T01:51:18.782Z,74.65
2017-06-08T01:52:19.357Z,74.55
2017-06-08T01:53:19.932Z,74.37
2017-06-08T01:54:20.506Z,74.84
2017-06-08T01:55:21.086Z,74.93
2017-06-08T01:56:21.658Z,74.65
2017-06-08T01:57:22.234Z,74.74
2017-06-08T01:58:22.808Z,74.46
2017-06-08T01:59:23.383Z,74.27
2017-06-08T02:00:23.957Z,74.65
2017-06-08T02:01:24.532Z,74.74
2017-06-08T02:02:25.107Z,74.65
2017-06-08T02:03:25.682Z,74.55
2017-06-08T02:04:26.257Z,74.74
2017-06-08T02:05:26.847Z,74.46
2017-06-08T02:06:27.422Z,74.84
2017-06-08T02:07:27.996Z,75.13
2017-06-08T02:08:28.572Z,74.93
2017-06-08T02:09:29.160Z,74.74
2017-06-08T02:10:29.734Z,75.13
2017-06-08T02:11:30.310Z,75.22
2017-06-08T02:12:30.937Z,75.42
2017-06-08T02:13:31.511Z,75.70
2017-06-08T02:14:32.087Z,75.42
2017-06-08T02:15:32.661Z,76.18
2017-06-08T02:16:33.235Z,75.79
2017-06-08T02:17:33.814Z,75.51
2017-06-08T02:18:34.385Z,75.51
2017-06-08T02:19:34.963Z,75.60
2017-06-08T02:20:35.547Z,75.60
2017-06-08T02:21:36.130Z,75.89
2017-06-08T02:22:36.703Z,75.70
2017-06-08T02:23:37.280Z,75.89
2017-06-08T02:24:37.858Z,76.08
2017-06-08T02:25:38.431Z,76.08
2017-06-08T02:26:39.018Z,75.98
2017-06-08T02:27:39.595Z,75.98
2017-06-08T02:28:40.169Z,76.27
2017-06-08T02:29:40.745Z,76.27
2017-06-08T02:30:41.321Z,76.18
2017-06-08T02:31:41.897Z,76.08
2017-06-08T02:32:42.473Z,75.70
2017-06-08T02:33:43.061Z,76.08
2017-06-08T02:34:43.636Z,75.98
2017-06-08T02:35:44.226Z,76.18
2017-06-08T02:36:44.814Z,76.56
2017-06-08T02:37:45.388Z,76.94
2017-06-08T02:38:45.962Z,76.75
2017-06-08T02:39:46.536Z,76.37
2017-06-08T02:40:47.111Z,76.18
2017-06-08T02:41:47.685Z,76.56
2017-06-08T02:42:48.261Z,76.94
2017-06-08T02:43:48.836Z,77.03
2017-06-08T02:44:49.410Z,76.65
2017-06-08T02:45:49.989Z,76.27
2017-06-08T02:46:50.564Z,77.23
2017-06-08T02:47:51.141Z,77.61
2017-06-08T02:48:51.715Z,77.61
2017-06-08T02:49:52.289Z,77.42
2017-06-08T02:50:52.864Z,77.51
2017-06-08T02:51:53.439Z,77.45
2017-06-08T02:52:54.013Z,77.23
2017-06-08T02:53:54.589Z,77.23
2017-06-08T02:54:55.164Z,77.23
2017-06-08T02:55:55.740Z,77.42
2017-06-08T02:56:56.316Z,77.36
2017-06-08T02:57:56.893Z,77.42
2017-06-08T02:58:57.467Z,78.31
2017-06-08T02:59:58.042Z,77.89
2017-06-08T03:00:58.618Z,78.66
2017-06-08T03:01:59.191Z,78.37
2017-06-08T03:02:59.766Z,78.18
2017-06-08T03:04:00.343Z,78.56
2017-06-08T03:05:00.932Z,78.56
2017-06-08T03:06:01.521Z,78.47
2017-06-08T03:07:02.095Z,78.47
2017-06-08T03:08:02.670Z,78.85
2017-06-08T03:09:03.244Z,78.47
2017-06-08T03:10:03.819Z,78.37
2017-06-08T03:11:04.395Z,78.37
2017-06-08T03:12:04.969Z,79.04
2017-06-08T03:13:05.544Z,78.85
2017-06-08T03:14:06.123Z,78.51
2017-06-08T03:15:06.697Z,78.41
2017-06-08T03:16:07.272Z,78.37
2017-06-08T03:17:07.846Z,78.41
2017-06-08T03:18:08.421Z,78.60
2017-06-08T03:19:08.995Z,78.51
2017-06-08T03:20:09.569Z,78.75
2017-06-08T03:21:10.145Z,78.66
2017-06-08T03:22:10.734Z,78.89
2017-06-08T03:23:11.309Z,78.89
2017-06-08T03:24:11.884Z,78.99
2017-06-08T03:25:12.463Z,78.79
2017-06-08T03:26:13.042Z,78.79
2017-06-08T03:27:13.617Z,78.79
2017-06-08T03:28:14.206Z,78.70
2017-06-08T03:29:14.784Z,78.89
2017-06-08T03:30:15.360Z,78.99
2017-06-08T03:31:15.935Z,79.27
2017-06-08T03:32:16.526Z,78.99
2017-06-08T03:33:17.102Z,79.36
2017-06-08T03:34:17.677Z,79.08
2017-06-08T03:35:18.253Z,79.08
2017-06-08T03:36:18.830Z,79.46
2017-06-08T03:37:19.409Z,79.27
2017-06-08T03:38:19.985Z,79.17
2017-06-08T03:39:20.561Z,79.46
2017-06-08T03:40:21.140Z,79.75
2017-06-08T03:41:21.713Z,79.46
2017-06-08T03:42:22.290Z,79.85
2017-06-08T03:43:22.866Z,80.61
2017-06-08T03:44:23.456Z,80.61
2017-06-08T03:45:24.034Z,80.13
2017-06-08T03:46:24.610Z,80.61
2017-06-08T03:47:25.188Z,80.80
2017-06-08T03:48:25.764Z,80.80
2017-06-08T03:49:26.339Z,81.09
2017-06-08T03:50:26.914Z,80.99
2017-06-08T03:51:27.491Z,81.52
2017-06-08T03:52:28.068Z,81.76
2017-06-08T03:53:28.656Z,81.47
2017-06-08T03:54:29.232Z,81.76
2017-06-08T03:55:29.810Z,81.37
2017-06-08T03:56:30.386Z,81.56
2017-06-08T03:57:30.962Z,82.04
2017-06-08T03:58:31.538Z,82.71
2017-06-08T03:59:32.128Z,82.76
2017-06-08T04:00:32.705Z,83.24
2017-06-08T04:01:33.280Z,84.52
2017-06-08T04:02:33.856Z,84.20
2017-06-08T04:03:34.434Z,84.96
2017-06-08T04:04:35.012Z,85.15
2017-06-08T04:05:35.588Z,85.25
2017-06-08T04:06:36.164Z,86.30
2017-06-08T04:07:36.739Z,87.44
2017-06-08T04:08:37.317Z,88.49
2017-06-08T04:09:37.893Z,88.78
2017-06-08T04:10:38.469Z,89.73
2017-06-08T04:11:39.046Z,89.92
2017-06-08T04:12:39.624Z,90.11
2017-06-08T04:13:40.212Z,91.16
2017-06-08T04:14:40.788Z,91.64
2017-06-08T04:15:41.364Z,92.31
2017-06-08T04:16:41.940Z,91.98
2017-06-08T04:17:42.530Z,93.02
2017-06-08T04:18:43.106Z,93.31
2017-06-08T04:19:43.694Z,93.79
2017-06-08T04:20:44.269Z,93.88
2017-06-08T04:21:44.845Z,94.17
2017-06-08T04:22:45.419Z,94.56
2017-06-08T04:23:45.995Z,94.74
2017-06-08T04:24:46.572Z,94.65
2017-06-08T04:25:47.147Z,95.79
2017-06-08T04:26:47.724Z,95.79
2017-06-08T04:27:48.299Z,95.51
2017-06-08T04:28:48.876Z,95.98
2017-06-08T04:29:49.451Z,96.66
2017-06-08T04:30:50.026Z,97.22
2017-06-08T04:31:50.603Z,97.32
2017-06-08T04:32:51.179Z,97.80
2017-06-08T04:33:51.758Z,98.37
2017-06-08T04:34:52.331Z,98.37
2017-06-08T04:35:52.910Z,98.85
2017-06-08T04:36:53.483Z,98.66
2017-06-08T04:37:54.060Z,99.13
2017-06-08T04:38:54.636Z,99.52
2017-06-08T04:39:55.223Z,99.52
2017-06-08T04:40:55.800Z,99.99
2017-06-08T04:41:56.379Z,99.99
2017-06-08T04:42:56.954Z,99.99
2017-06-08T04:43:57.530Z,99.99
2017-06-08T04:44:58.119Z,99.99
2017-06-08T04:45:58.696Z,99.99
2017-06-08T04:46:59.273Z,99.99
2017-06-08T04:47:59.849Z,99.99
2017-06-08T04:49:00.426Z,99.99
2017-06-08T04:50:01.003Z,99.99
2017-06-08T04:51:01.577Z,99.99
2017-06-08T04:52:02.166Z,99.99
2017-06-08T04:53:02.744Z,99.99
2017-06-08T04:54:03.319Z,99.99
2017-06-08T04:55:03.894Z,99.99
2017-06-08T04:56:04.468Z,99.99
2017-06-08T04:57:05.044Z,99.99
2017-06-08T04:58:05.622Z,99.99
2017-06-08T04:59:06.198Z,99.99
2017-06-08T05:00:06.789Z,99.99
2017-06-08T05:01:07.366Z,99.99
2017-06-08T05:02:07.957Z,99.99
2017-06-08T05:03:08.532Z,99.99
2017-06-08T05:04:09.108Z,99.99
2017-06-08T05:05:09.684Z,99.99
2017-06-08T05:06:10.259Z,99.99
2017-06-08T05:07:10.835Z,99.99
2017-06-08T05:08:11.412Z,99.99
2017-06-08T05:09:11.988Z,99.99
2017-06-08T05:10:12.565Z,99.99
2017-06-08T05:11:13.140Z,99.99
2017-06-08T05:12:13.716Z,99.99
2017-06-08T05:13:14.291Z,99.99
2017-06-08T05:14:14.869Z,99.99
2017-06-08T05:15:15.459Z,99.99
2017-06-08T05:16:16.035Z,99.99
2017-06-08T05:17:16.613Z,99.99
2017-06-08T05:18:17.188Z,99.99
2017-06-08T05:19:17.764Z,99.99
2017-06-08T05:20:18.342Z,99.99
2017-06-08T05:21:18.921Z,99.99
2017-06-08T05:22:19.498Z,99.99
2017-06-08T05:23:20.077Z,99.99
2017-06-08T05:24:20.654Z,99.99
2017-06-08T05:25:21.235Z,99.99
2017-06-08T05:26:21.812Z,99.99
2017-06-08T05:27:22.388Z,99.99
2017-06-08T05:28:22.966Z,99.99
2017-06-08T05:29:23.545Z,99.99
2017-06-08T05:30:24.124Z,99.99
2017-06-08T05:31:24.701Z,99.99
2017-06-08T05:32:25.280Z,99.99
2017-06-08T05:33:25.859Z,99.99
2017-06-08T05:34:26.436Z,99.99
2017-06-08T05:35:27.013Z,99.99
2017-06-08T05:36:27.592Z,99.99
2017-06-08T05:37:28.170Z,99.99
2017-06-08T05:38:28.749Z,99.99
2017-06-08T05:39:29.326Z,99.99
2017-06-08T05:40:29.904Z,99.99
2017-06-08T05:41:30.484Z,99.99
2017-06-08T05:42:31.061Z,99.99
2017-06-08T05:43:31.639Z,99.99
2017-06-08T05:44:32.222Z,99.99
2017-06-08T05:45:32.796Z,99.99
2017-06-08T05:46:33.374Z,99.99
2017-06-08T05:47:33.951Z,99.99
2017-06-08T05:48:34.530Z,99.99
2017-06-08T05:49:35.110Z,99.99
2017-06-08T05:50:35.687Z,99.99
2017-06-08T05:51:36.278Z,99.99
2017-06-08T05:52:36.868Z,99.99
2017-06-08T05:53:37.448Z,99.99
2017-06-08T05:54:38.025Z,99.99
2017-06-08T05:55:38.607Z,99.99
2017-06-08T05:56:39.184Z,99.99
2017-06-08T05:57:39.760Z,99.99
2017-06-08T05:58:40.338Z,99.99
2017-06-08T05:59:40.917Z,99.99
2017-06-08T06:00:41.498Z,99.99
2017-06-08T06:01:42.076Z,99.99
2017-06-08T06:02:42.653Z,99.99
2017-06-08T06:03:43.233Z,99.99
2017-06-08T06:04:43.813Z,99.99
2017-06-08T06:05:44.391Z,99.99
2017-06-08T06:06:44.969Z,99.99
2017-06-08T06:07:45.551Z,99.99
2017-06-08T06:08:46.128Z,99.99
2017-06-08T06:09:46.706Z,99.99
2017-06-08T06:10:47.285Z,99.99
2017-06-08T06:11:47.863Z,99.99
2017-06-08T06:12:48.444Z,99.99
2017-06-08T06:13:49.023Z,99.99
2017-06-08T06:14:49.602Z,99.99
2017-06-08T06:15:50.194Z,99.99
2017-06-08T06:16:50.773Z,99.99
2017-06-08T06:17:51.351Z,99.99
2017-06-08T06:18:51.932Z,99.99
2017-06-08T06:19:52.507Z,99.99
2017-06-08T06:20:53.086Z,99.99
2017-06-08T06:21:53.665Z,99.99
2017-06-08T06:22:54.244Z,99.95
2017-06-08T06:23:54.821Z,99.99
2017-06-08T06:24:55.405Z,99.99
2017-06-08T06:25:55.980Z,99.99
2017-06-08T06:26:56.562Z,99.99
2017-06-08T06:27:57.138Z,99.76
2017-06-08T06:28:57.717Z,99.76
2017-06-08T06:29:58.298Z,99.99
2017-06-08T06:30:58.875Z,99.43
2017-06-08T06:31:59.454Z,98.23
2017-06-08T06:33:00.033Z,98.71
2017-06-08T06:34:00.611Z,99.38
2017-06-08T06:35:01.190Z,99.04
2017-06-08T06:36:01.769Z,98.38
2017-06-08T06:37:02.347Z,98.28
2017-06-08T06:38:02.929Z,98.09
2017-06-08T06:39:03.506Z,98.28
2017-06-08T06:40:04.085Z,96.94
2017-06-08T06:41:04.664Z,96.94
2017-06-08T06:42:05.243Z,97.04
2017-06-08T06:43:05.823Z,96.56
2017-06-08T06:44:06.403Z,96.37
2017-06-08T06:45:06.984Z,96.66
2017-06-08T06:46:07.574Z,97.04
2017-06-08T06:47:08.143Z,96.84
2017-06-08T06:48:08.722Z,95.89
2017-06-08T06:49:09.302Z,95.12
2017-06-08T06:50:09.881Z,95.70
2017-06-08T06:51:10.461Z,95.98
2017-06-08T06:52:11.042Z,95.12
2017-06-08T06:53:11.635Z,95.89
2017-06-08T06:54:12.214Z,94.74
2017-06-08T06:55:12.794Z,95.12
2017-06-08T06:56:13.372Z,95.22
2017-06-08T06:57:13.951Z,96.27
2017-06-08T06:58:14.531Z,94.65
2017-06-08T06:59:15.110Z,94.74
2017-06-08T07:00:15.688Z,95.22
2017-06-08T07:01:16.267Z,94.65
2017-06-08T07:02:16.851Z,94.26
2017-06-08T07:03:17.439Z,94.12
2017-06-08T07:04:18.030Z,93.26
2017-06-08T07:05:18.613Z,92.97
2017-06-08T07:06:19.190Z,92.88
2017-06-08T07:07:19.770Z,92.11
2017-06-08T07:08:20.348Z,92.02
2017-06-08T07:09:20.929Z,92.30
2017-06-08T07:10:21.509Z,92.30
2017-06-08T07:11:22.088Z,91.53
2017-06-08T07:12:22.668Z,92.21
2017-06-08T07:13:23.250Z,91.06
2017-06-08T07:14:23.830Z,92.06
2017-06-08T07:15:24.410Z,90.48
2017-06-08T07:16:24.991Z,90.96
2017-06-08T07:17:25.571Z,90.39
2017-06-08T07:18:26.150Z,90.39
2017-06-08T07:19:26.728Z,89.43
2017-06-08T07:20:27.308Z,89.43
2017-06-08T07:21:27.889Z,89.05
2017-06-08T07:22:28.469Z,89.34
2017-06-08T07:23:29.049Z,89.58
2017-06-08T07:24:29.629Z,89.29
2017-06-08T07:25:30.209Z,88.13
2017-06-08T07:26:30.788Z,87.95
2017-06-08T07:27:31.368Z,87.95
2017-06-08T07:28:31.948Z,88.13
2017-06-08T07:29:32.528Z,87.56
2017-06-08T07:30:33.107Z,87.27
2017-06-08T07:31:33.685Z,87.23
2017-06-08T07:32:34.269Z,86.70
2017-06-08T07:33:34.849Z,85.65
2017-06-08T07:34:35.427Z,85.84
2017-06-08T07:35:36.007Z,84.50
2017-06-08T07:36:36.588Z,85.65
2017-06-08T07:37:37.170Z,85.69
2017-06-08T07:38:37.750Z,85.12
2017-06-08T07:39:38.329Z,85.02
2017-06-08T07:40:38.910Z,85.21
2017-06-08T07:41:39.489Z,84.97
2017-06-08T07:42:40.069Z,85.02
2017-06-08T07:43:40.651Z,83.97
2017-06-08T07:44:41.231Z,84.26
2017-06-08T07:45:41.811Z,83.78
2017-06-08T07:46:42.390Z,84.55
2017-06-08T07:47:42.970Z,84.55
2017-06-08T07:48:43.553Z,84.45
2017-06-08T07:49:44.130Z,83.68
2017-06-08T07:50:44.710Z,84.06
2017-06-08T07:51:45.289Z,82.63
2017-06-08T07:52:45.881Z,82.63
2017-06-08T07:53:46.462Z,82.63
2017-06-08T07:54:47.043Z,83.01
2017-06-08T07:55:47.624Z,82.24
2017-06-08T07:56:48.221Z,83.11
2017-06-08T07:57:48.811Z,83.49
2017-06-08T07:58:49.392Z,83.05
2017-06-08T07:59:49.971Z,82.76
2017-06-08T08:00:50.554Z,82.73
2017-06-08T08:01:51.142Z,82.00
2017-06-08T08:02:51.723Z,82.00
2017-06-08T08:03:52.304Z,81.90
2017-06-08T08:04:52.885Z,82.38
2017-06-08T08:05:53.464Z,81.66
2017-06-08T08:06:54.044Z,80.85
2017-06-08T08:07:54.626Z,81.13
2017-06-08T08:08:55.206Z,82.00
2017-06-08T08:09:55.785Z,81.62
2017-06-08T08:10:56.365Z,81.62
2017-06-08T08:11:56.961Z,80.76
2017-06-08T08:12:57.541Z,81.23
2017-06-08T08:13:58.124Z,80.56
2017-06-08T08:14:58.704Z,81.23
2017-06-08T08:15:59.285Z,81.27
2017-06-08T08:16:59.868Z,81.08
2017-06-08T08:18:00.448Z,81.27
2017-06-08T08:19:01.029Z,80.99
2017-06-08T08:20:01.612Z,80.07
2017-06-08T08:21:02.195Z,79.49
2017-06-08T08:22:02.775Z,78.19
2017-06-08T08:23:03.358Z,77.33
2017-06-08T08:24:03.941Z,78.19
2017-06-08T08:25:04.521Z,77.08
2017-06-08T08:26:05.102Z,76.79
2017-06-08T08:27:05.686Z,76.40
2017-06-08T08:28:06.269Z,76.40
2017-06-08T08:29:06.849Z,76.12
2017-06-08T08:30:07.432Z,76.12
2017-06-08T08:31:08.016Z,74.62
2017-06-08T08:32:08.598Z,74.01
2017-06-08T08:33:09.197Z,74.33
2017-06-08T08:34:09.776Z,72.41
2017-06-08T08:35:10.360Z,72.41
2017-06-08T08:36:10.942Z,72.85
2017-06-08T08:37:11.524Z,74.06
2017-06-08T08:38:12.108Z,74.54
2017-06-08T08:39:12.705Z,74.16
2017-06-08T08:40:13.290Z,74.19
2017-06-08T08:41:13.871Z,73.72
2017-06-08T08:42:14.468Z,73.24
2017-06-08T08:43:15.054Z,71.61
2017-06-08T08:44:15.635Z,72.37
2017-06-08T08:45:16.218Z,71.98
2017-06-08T08:46:16.801Z,71.83
2017-06-08T08:47:17.384Z,71.16
2017-06-08T08:48:17.967Z,70.97
2017-06-08T08:49:18.564Z,71.39
2017-06-08T08:50:19.152Z,68.76
2017-06-08T08:51:19.741Z,69.62
2017-06-08T08:52:20.325Z,69.24
2017-06-08T08:53:20.911Z,69.02
2017-06-08T08:54:21.491Z,67.00
2017-06-08T08:55:22.073Z,67.58
2017-06-08T08:56:22.657Z,67.38
2017-06-08T08:57:23.242Z,67.19
2017-06-08T08:58:23.824Z,66.77
2017-06-08T08:59:24.407Z,67.35
2017-06-08T09:00:24.990Z,67.74
2017-06-08T09:01:25.573Z,68.31
2017-06-08T09:02:26.159Z,68.12
2017-06-08T09:03:26.740Z,68.02
2017-06-08T09:04:27.325Z,67.68
2017-06-08T09:05:27.911Z,67.10
2017-06-08T09:06:28.492Z,67.19
2017-06-08T09:07:29.078Z,67.32
2017-06-08T09:08:29.663Z,66.58
2017-06-08T09:09:30.246Z,67.80
2017-06-08T09:10:30.829Z,67.93
2017-06-08T09:11:31.414Z,68.12
2017-06-08T09:12:31.995Z,65.75
2017-06-08T09:13:32.579Z,66.20
2017-06-08T09:14:33.161Z,66.33
2017-06-08T09:15:33.746Z,65.33
2017-06-08T09:16:34.330Z,66.58
2017-06-08T09:17:34.913Z,67.25
2017-06-08T09:18:35.496Z,66.23
2017-06-08T09:19:36.081Z,66.36
2017-06-08T09:20:36.663Z,65.78
2017-06-08T09:21:37.246Z,65.11
2017-06-08T09:22:37.830Z,64.89
2017-06-08T09:23:38.415Z,65.08
2017-06-08T09:24:38.997Z,64.25
2017-06-08T09:25:39.593Z,64.53
2017-06-08T09:26:40.178Z,65.20
2017-06-08T09:27:40.762Z,64.43
2017-06-08T09:28:41.345Z,64.25
2017-06-08T09:29:41.929Z,64.18
2017-06-08T09:30:42.517Z,63.15
2017-06-08T09:31:43.096Z,62.38
2017-06-08T09:32:43.680Z,62.38
2017-06-08T09:33:44.262Z,62.99
2017-06-08T09:34:44.847Z,64.08
2017-06-08T09:35:45.430Z,64.66
2017-06-08T09:36:46.013Z,64.76
2017-06-08T09:37:46.599Z,65.33
2017-06-08T09:38:47.182Z,64.37
2017-06-08T09:39:47.766Z,64.12
2017-06-08T09:40:48.352Z,63.60
2017-06-08T09:41:48.933Z,63.18
2017-06-08T09:42:49.518Z,64.47
2017-06-08T09:43:50.117Z,63.41
2017-06-08T09:44:50.698Z,62.35
2017-06-08T09:45:51.281Z,62.38
2017-06-08T09:46:51.868Z,62.93
2017-06-08T09:47:52.466Z,62.23
2017-06-08T09:48:53.049Z,62.13
2017-06-08T09:49:53.633Z,62.64
2017-06-08T09:50:54.219Z,62.13
2017-06-08T09:51:54.802Z,62.90
2017-06-08T09:52:55.386Z,63.12
2017-06-08T09:53:55.971Z,61.42
2017-06-08T09:54:56.554Z,60.84
2017-06-08T09:55:57.138Z,60.24
2017-06-08T09:56:57.723Z,61.87
2017-06-08T09:57:58.308Z,61.71
2017-06-08T09:58:58.906Z,60.46
2017-06-08T09:59:59.503Z,60.17
2017-06-08T10:01:00.088Z,61.32
2017-06-08T10:02:00.673Z,61.32
2017-06-08T10:03:01.255Z,60.17
2017-06-08T10:04:01.839Z,60.20
2017-06-08T10:05:02.425Z,58.95
2017-06-08T10:06:03.008Z,60.30
2017-06-08T10:07:03.591Z,60.24
2017-06-08T10:08:04.175Z,60.39
2017-06-08T10:09:04.759Z,60.21
2017-06-08T10:10:05.346Z,60.81
2017-06-08T10:11:05.929Z,60.52
2017-06-08T10:12:06.512Z,61.39
2017-06-08T10:13:07.109Z,60.52
2017-06-08T10:14:07.694Z,60.11
2017-06-08T10:15:08.279Z,61.39
2017-06-08T10:16:08.861Z,60.72
2017-06-08T10:17:09.448Z,60.14
2017-06-08T10:18:10.032Z,61.07
2017-06-08T10:19:10.631Z,60.81
2017-06-08T10:20:11.215Z,60.62
2017-06-08T10:21:11.801Z,61.29
2017-06-08T10:22:12.384Z,61.52
2017-06-08T10:23:12.967Z,60.17
2017-06-08T10:24:13.563Z,60.46
2017-06-08T10:25:14.149Z,60.14
2017-06-08T10:26:14.733Z,60.36
2017-06-08T10:27:15.318Z,60.75
2017-06-08T10:28:15.901Z,60.07
2017-06-08T10:29:16.487Z,60.36
2017-06-08T10:30:17.071Z,58.92
2017-06-08T10:31:17.656Z,58.98
2017-06-08T10:32:18.240Z,59.59
2017-06-08T10:33:18.825Z,59.11
2017-06-08T10:34:19.409Z,60.24
2017-06-08T10:35:20.007Z,60.55
2017-06-08T10:36:20.592Z,60.27
2017-06-08T10:37:21.177Z,59.91
2017-06-08T10:38:21.773Z,59.04
2017-06-08T10:39:22.357Z,58.95
2017-06-08T10:40:22.941Z,58.34
2017-06-08T10:41:23.526Z,58.65
2017-06-08T10:42:24.109Z,59.30
2017-06-08T10:43:24.706Z,60.07
2017-06-08T10:44:25.290Z,60.65
2017-06-08T10:45:25.873Z,60.46
2017-06-08T10:46:26.457Z,60.75
2017-06-08T10:47:27.043Z,60.94
2017-06-08T10:48:27.641Z,60.65
2017-06-08T10:49:28.229Z,60.55
2017-06-08T10:50:28.808Z,60.75
2017-06-08T10:51:29.395Z,60.94
2017-06-08T10:52:29.979Z,60.42
2017-06-08T10:53:30.563Z,60.62
2017-06-08T10:54:31.150Z,60.91
2017-06-08T10:55:31.733Z,60.62
2017-06-08T10:56:32.318Z,61.68
2017-06-08T10:57:32.903Z,62.29
2017-06-08T10:58:33.488Z,60.72
2017-06-08T10:59:34.074Z,61.32
2017-06-08T11:00:34.658Z,61.04
2017-06-08T11:01:35.241Z,61.04
2017-06-08T11:02:35.825Z,61.35
2017-06-08T11:03:36.410Z,61.65
2017-06-08T11:04:37.009Z,60.55
2017-06-08T11:05:37.606Z,61.80
2017-06-08T11:06:38.188Z,61.22
2017-06-08T11:07:38.771Z,61.19
2017-06-08T11:08:39.354Z,62.35
2017-06-08T11:09:39.938Z,61.58
2017-06-08T11:10:40.527Z,61.97
2017-06-08T11:11:41.106Z,62.51
2017-06-08T11:12:41.688Z,63.02
2017-06-08T11:13:42.274Z,62.35
2017-06-08T11:14:42.857Z,62.83
2017-06-08T11:15:43.441Z,62.54
2017-06-08T11:16:44.028Z,62.54
2017-06-08T11:17:44.612Z,62.45
2017-06-08T11:18:45.193Z,62.38
2017-06-08T11:19:45.775Z,62.29
2017-06-08T11:20:46.358Z,63.06
2017-06-08T11:21:46.944Z,62.29
2017-06-08T11:22:47.526Z,62.87
2017-06-08T11:23:48.123Z,62.29
2017-06-08T11:24:48.705Z,63.15
2017-06-08T11:25:49.289Z,62.29
2017-06-08T11:26:49.872Z,62.29
2017-06-08T11:27:50.457Z,61.52
2017-06-08T11:28:51.040Z,62.29
2017-06-08T11:29:51.625Z,61.61
2017-06-08T11:30:52.212Z,61.65
2017-06-08T11:31:52.801Z,60.68
2017-06-08T11:32:53.379Z,60.49
2017-06-08T11:33:53.964Z,60.68
2017-06-08T11:34:54.548Z,61.35
2017-06-08T11:35:55.132Z,60.58
2017-06-08T11:36:55.718Z,59.33
2017-06-08T11:37:56.315Z,59.88
2017-06-08T11:38:56.899Z,59.84
2017-06-08T11:39:57.497Z,59.65
2017-06-08T11:40:58.081Z,60.42
2017-06-08T11:41:58.666Z,60.10
2017-06-08T11:42:59.249Z,60.39
2017-06-08T11:43:59.834Z,60.77
2017-06-08T11:45:00.425Z,60.52
2017-06-08T11:46:01.004Z,60.52
2017-06-08T11:47:01.590Z,59.94
2017-06-08T11:48:02.173Z,59.14
2017-06-08T11:49:02.758Z,59.07
2017-06-08T11:50:03.343Z,59.75
2017-06-08T11:51:03.928Z,59.94
2017-06-08T11:52:04.513Z,59.27
2017-06-08T11:53:05.097Z,58.20
2017-06-08T11:54:05.680Z,57.72
2017-06-08T11:55:06.265Z,57.75
2017-06-08T11:56:06.851Z,57.17
2017-06-08T11:57:07.437Z,56.72
2017-06-08T11:58:08.017Z,57.10
2017-06-08T11:59:08.604Z,57.29
2017-06-08T12:00:09.190Z,56.79
2017-06-08T12:01:09.773Z,56.91
2017-06-08T12:02:10.363Z,56.49
2017-06-08T12:03:10.963Z,56.59
2017-06-08T12:04:11.545Z,55.34
2017-06-08T12:05:12.129Z,56.01
2017-06-08T12:06:12.714Z,56.49
2017-06-08T12:07:13.298Z,56.40
2017-06-08T12:08:13.883Z,56.69
2017-06-08T12:09:14.473Z,57.07
2017-06-08T12:10:15.053Z,56.40
2017-06-08T12:11:15.638Z,55.94
2017-06-08T12:12:16.225Z,58.07
2017-06-08T12:13:16.808Z,56.72
2017-06-08T12:14:17.393Z,57.59
2017-06-08T12:15:17.977Z,58.87
2017-06-08T12:16:18.561Z,58.12
2017-06-08T12:17:19.149Z,56.20
2017-06-08T12:18:19.733Z,56.36
2017-06-08T12:19:20.320Z,56.10
2017-06-08T12:20:20.906Z,55.23
2017-06-08T12:21:21.489Z,55.90
2017-06-08T12:22:22.075Z,55.04
2017-06-08T12:23:22.673Z,54.84
2017-06-08T12:24:23.258Z,54.43
2017-06-08T12:25:23.842Z,55.01
2017-06-08T12:26:24.428Z,54.94
2017-06-08T12:27:25.014Z,55.45
2017-06-08T12:28:25.598Z,54.97
2017-06-08T12:29:26.184Z,54.29
2017-06-08T12:30:26.771Z,52.39
2017-06-08T12:31:27.355Z,52.58
2017-06-08T12:32:27.940Z,54.13
2017-06-08T12:33:28.528Z,53.81
2017-06-08T12:34:29.113Z,54.17
2017-06-08T12:35:29.698Z,53.30
2017-06-08T12:36:30.284Z,53.13
2017-06-08T12:37:30.869Z,53.33
2017-06-08T12:38:31.454Z,53.23
2017-06-08T12:39:32.038Z,53.33
2017-06-08T12:40:32.623Z,51.78
2017-06-08T12:41:33.210Z,51.20
2017-06-08T12:42:33.795Z,51.87
2017-06-08T12:43:34.392Z,51.97
2017-06-08T12:44:34.978Z,52.19
2017-06-08T12:45:35.568Z,51.64
2017-06-08T12:46:36.151Z,52.02
2017-06-08T12:47:36.737Z,50.57
2017-06-08T12:48:37.334Z,50.55
2017-06-08T12:49:37.921Z,51.71
2017-06-08T12:50:38.506Z,51.68
2017-06-08T12:51:39.091Z,52.39
2017-06-08T12:52:39.678Z,52.65
2017-06-08T12:53:40.263Z,52.07
2017-06-08T12:54:40.848Z,51.20
2017-06-08T12:55:41.434Z,51.20
2017-06-08T12:56:42.021Z,51.39
2017-06-08T12:57:42.610Z,52.19
2017-06-08T12:58:43.190Z,51.03
2017-06-08T12:59:43.775Z,50.93